Fogelsville, Pennsylvania
Current Conditions -  °F | °C
As of 4:35 AM on Thursday 23 Oct 2014 (Local Time) from KXLL Reporting Station
Light Rain Light Rain  
Wind Chill: 50°   Ceiling: 3600
Heat Index: 50°   Visibility: 10mi
Dew Point: 45°   Wind: 9mph
Humidity: 82%   Direction: 350°N
Pressure: 29.81"   Gusts: 18mph
Location:  40.58°N, 75.63°W
Report Text: KXLL 230835Z AUTO 35008G16KT 10SM -RA OVC036 10/07 A2981 RMK AO2 LTG DSNT E
Loading
Personal Weather Stations






























Interactive Weather Map New forecast layout! Learn more

10-Day Weather Forecast

Advertisements
Track Severe Weather on mobile